createdAt,value
2023-07-02T00:00:09.913Z,2.50
2023-07-02T00:02:38.050Z,2.38
2023-07-02T00:05:06.463Z,1.90
2023-07-02T00:07:35.847Z,1.90
2023-07-02T00:10:03.569Z,2.00
2023-07-02T00:12:30.759Z,2.00
2023-07-02T00:14:58.042Z,1.77
2023-07-02T00:17:25.312Z,1.98
2023-07-02T00:19:53.410Z,2.20
2023-07-02T00:22:21.984Z,2.17
2023-07-02T00:24:51.692Z,2.17
2023-07-02T00:27:19.251Z,1.80
2023-07-02T00:29:46.411Z,2.30
2023-07-02T00:32:13.614Z,2.25
2023-07-02T00:34:40.814Z,2.00
2023-07-02T00:37:08.029Z,2.40
2023-07-02T00:39:35.393Z,2.40
2023-07-02T00:42:04.220Z,2.00
2023-07-02T00:44:31.956Z,2.22
2023-07-02T00:46:59.216Z,2.38
2023-07-02T00:49:26.792Z,2.30
2023-07-02T00:51:54.008Z,2.00
2023-07-02T00:54:21.230Z,2.38
2023-07-02T00:56:48.543Z,2.35
2023-07-02T00:59:15.901Z,2.60
2023-07-02T01:01:43.320Z,2.75
2023-07-02T01:04:10.844Z,2.28
2023-07-02T01:06:42.869Z,2.22
2023-07-02T01:09:11.088Z,2.40
2023-07-02T01:11:39.773Z,2.58
2023-07-02T01:14:14.026Z,2.78
2023-07-02T01:16:44.895Z,2.20
2023-07-02T01:19:20.082Z,2.30
2023-07-02T01:21:50.996Z,2.40
2023-07-02T01:24:19.008Z,2.60
2023-07-02T01:26:46.896Z,2.85
2023-07-02T01:29:22.304Z,2.30
2023-07-02T01:31:49.581Z,2.35
2023-07-02T01:34:16.982Z,2.67
2023-07-02T01:36:44.169Z,2.67
2023-07-02T01:39:11.466Z,2.45
2023-07-02T01:41:56.034Z,3.20
2023-07-02T01:44:23.800Z,2.90
2023-07-02T01:46:51.015Z,2.78
2023-07-02T01:49:19.329Z,2.83
2023-07-02T01:51:50.334Z,2.90
2023-07-02T01:54:17.798Z,3.03
2023-07-02T01:56:45.022Z,2.60
2023-07-02T01:59:12.676Z,3.30
2023-07-02T02:01:42.684Z,2.90
2023-07-02T02:04:10.936Z,3.33
2023-07-02T02:06:39.426Z,3.08
2023-07-02T02:09:07.438Z,3.13
2023-07-02T02:11:36.089Z,3.40
2023-07-02T02:14:03.345Z,3.40
2023-07-02T02:16:30.864Z,3.10
2023-07-02T02:18:58.083Z,3.38
2023-07-02T02:21:25.282Z,3.60
2023-07-02T02:23:52.464Z,3.67
2023-07-02T02:26:19.659Z,3.97
2023-07-02T02:28:46.864Z,4.40
2023-07-02T02:31:14.166Z,4.35
2023-07-02T02:33:41.418Z,4.18
2023-07-02T02:36:08.721Z,4.05
2023-07-02T02:38:36.051Z,4.30
2023-07-02T02:41:03.543Z,4.20
2023-07-02T02:43:30.785Z,4.22
2023-07-02T02:45:57.992Z,4.13
2023-07-02T02:48:25.188Z,3.92
2023-07-02T02:50:52.402Z,4.22
2023-07-02T02:53:19.592Z,4.10
2023-07-02T02:55:46.757Z,5.00
2023-07-02T02:58:13.929Z,4.40
2023-07-02T03:00:43.865Z,4.53
2023-07-02T03:03:11.220Z,3.70
2023-07-02T03:05:38.440Z,4.25
2023-07-02T03:08:06.836Z,4.32
2023-07-02T03:10:34.043Z,4.10
2023-07-02T03:13:01.512Z,4.30
2023-07-02T03:15:28.730Z,4.63
2023-07-02T03:17:55.954Z,4.75
2023-07-02T03:20:23.378Z,4.68
2023-07-02T03:22:50.569Z,4.72
2023-07-02T03:25:18.546Z,5.07
2023-07-02T03:27:45.808Z,4.50
2023-07-02T03:30:13.161Z,5.03
2023-07-02T03:32:40.409Z,4.20
2023-07-02T03:35:07.937Z,4.95
2023-07-02T03:37:35.095Z,5.07
2023-07-02T03:40:02.300Z,5.32
2023-07-02T03:42:30.003Z,5.35
2023-07-02T03:44:57.201Z,5.03
2023-07-02T03:47:24.391Z,5.18
2023-07-02T03:49:51.946Z,5.43
2023-07-02T03:52:19.205Z,5.65
2023-07-02T03:54:46.446Z,5.10
2023-07-02T03:57:13.648Z,5.35
2023-07-02T03:59:40.829Z,5.47
2023-07-02T04:02:08.048Z,5.28
2023-07-02T04:04:35.382Z,5.45
2023-07-02T04:07:02.661Z,5.85
2023-07-02T04:09:30.141Z,5.65
2023-07-02T04:11:57.360Z,6.38
2023-07-02T04:14:24.507Z,5.80
2023-07-02T04:16:51.693Z,5.68
2023-07-02T04:19:18.927Z,6.32
2023-07-02T04:21:46.072Z,5.85
2023-07-02T04:24:13.213Z,6.63
2023-07-02T04:26:58.802Z,6.40
2023-07-02T04:29:31.235Z,5.82
2023-07-02T04:31:58.407Z,5.72
2023-07-02T04:34:25.674Z,6.25
2023-07-02T04:36:54.070Z,6.10
2023-07-02T04:39:21.411Z,6.38
2023-07-02T04:41:50.296Z,6.10
2023-07-02T04:44:17.445Z,6.25
2023-07-02T04:46:44.594Z,6.63
2023-07-02T04:49:11.832Z,5.90
2023-07-02T04:51:39.110Z,6.63
2023-07-02T04:54:06.258Z,7.28
2023-07-02T04:56:33.448Z,6.97
2023-07-02T04:59:00.596Z,6.97
2023-07-02T05:01:29.492Z,7.20
2023-07-02T05:03:56.876Z,7.30
2023-07-02T05:06:24.120Z,7.40
2023-07-02T05:08:51.323Z,6.97
2023-07-02T05:11:18.446Z,6.53
2023-07-02T05:13:45.632Z,7.15
2023-07-02T05:16:12.894Z,8.70
2023-07-02T05:18:40.198Z,7.40
2023-07-02T05:21:07.367Z,7.88
2023-07-02T05:23:34.570Z,7.93
2023-07-02T05:26:02.827Z,7.50
2023-07-02T05:28:30.198Z,7.00
2023-07-02T05:30:57.452Z,7.53
2023-07-02T05:33:24.681Z,7.47
2023-07-02T05:35:52.230Z,7.53
2023-07-02T05:38:20.505Z,8.35
2023-07-02T05:40:48.062Z,8.00
2023-07-02T05:43:15.582Z,7.97
2023-07-02T05:45:42.886Z,7.93
2023-07-02T05:48:10.156Z,7.18
2023-07-02T05:50:37.436Z,8.05
2023-07-02T05:53:04.648Z,7.72
2023-07-02T05:55:31.816Z,7.78
2023-07-02T05:58:02.860Z,7.45
2023-07-02T06:00:30.744Z,7.47
2023-07-02T06:02:58.030Z,7.78
2023-07-02T06:05:25.354Z,7.47
2023-07-02T06:07:52.931Z,7.13
2023-07-02T06:10:20.135Z,7.45
2023-07-02T06:12:47.365Z,7.82
2023-07-02T06:15:14.543Z,8.00
2023-07-02T06:17:41.737Z,8.00
2023-07-02T06:20:09.480Z,7.75
2023-07-02T06:22:36.658Z,7.22
2023-07-02T06:25:05.732Z,7.70
2023-07-02T06:27:33.494Z,8.05
2023-07-02T06:30:00.665Z,7.65
2023-07-02T06:32:28.545Z,7.88
2023-07-02T06:34:55.803Z,7.68
2023-07-02T06:37:23.036Z,7.68
2023-07-02T06:39:50.246Z,7.50
2023-07-02T06:42:17.476Z,7.85
2023-07-02T06:44:44.736Z,7.07
2023-07-02T06:47:11.898Z,7.68
2023-07-02T06:49:39.195Z,7.93
2023-07-02T06:52:06.612Z,8.00
2023-07-02T06:54:33.804Z,7.22
2023-07-02T06:57:01.172Z,8.02
2023-07-02T06:59:28.344Z,7.85
2023-07-02T07:01:55.805Z,8.23
2023-07-02T07:04:23.095Z,7.78
2023-07-02T07:06:50.438Z,8.30
2023-07-02T07:09:19.190Z,7.68
2023-07-02T07:11:46.384Z,7.65
2023-07-02T07:14:13.698Z,6.80
2023-07-02T07:16:41.086Z,7.32
2023-07-02T07:19:08.809Z,6.55
2023-07-02T07:21:36.466Z,6.63
2023-07-02T07:24:03.802Z,6.10
2023-07-02T07:26:31.134Z,6.13
2023-07-02T07:28:59.253Z,6.25
2023-07-02T07:31:26.595Z,6.00
2023-07-02T07:33:53.821Z,6.30
2023-07-02T07:36:20.995Z,6.38
2023-07-02T07:38:48.163Z,6.07
2023-07-02T07:41:15.428Z,6.10
2023-07-02T07:43:42.589Z,5.80
2023-07-02T07:46:09.945Z,5.85
2023-07-02T07:48:37.261Z,5.38
2023-07-02T07:51:04.590Z,5.57
2023-07-02T07:53:31.703Z,5.10
2023-07-02T07:55:59.302Z,5.70
2023-07-02T07:58:26.958Z,5.75
2023-07-02T08:00:54.166Z,5.40
2023-07-02T08:03:21.479Z,5.07
2023-07-02T08:05:48.691Z,5.38
2023-07-02T08:08:16.128Z,4.70
2023-07-02T08:10:43.525Z,5.07
2023-07-02T08:13:10.761Z,4.88
2023-07-02T08:15:38.918Z,5.00
2023-07-02T08:18:08.700Z,5.10
2023-07-02T08:20:35.880Z,5.13
2023-07-02T08:23:03.117Z,5.60
2023-07-02T08:25:30.450Z,5.60
2023-07-02T08:27:58.303Z,5.70
2023-07-02T08:30:26.876Z,6.07
2023-07-02T08:32:55.764Z,5.80
2023-07-02T08:35:23.262Z,5.00
2023-07-02T08:37:50.532Z,5.22
2023-07-02T08:40:19.306Z,5.93
2023-07-02T08:42:48.642Z,5.60
2023-07-02T08:45:20.013Z,5.05
2023-07-02T08:47:47.381Z,4.75
2023-07-02T08:50:15.359Z,5.03
2023-07-02T08:52:44.235Z,5.45
2023-07-02T08:55:11.566Z,4.65
2023-07-02T08:57:38.770Z,4.70
2023-07-02T09:00:10.947Z,4.60
2023-07-02T09:02:38.289Z,5.07
2023-07-02T09:05:06.263Z,4.72
2023-07-02T09:07:33.657Z,5.07
2023-07-02T09:10:00.888Z,5.68
2023-07-02T09:12:30.053Z,5.35
2023-07-02T09:15:07.902Z,5.25
2023-07-02T09:17:37.029Z,5.93
2023-07-02T09:20:09.851Z,6.30
2023-07-02T09:22:37.997Z,5.63
2023-07-02T09:25:05.878Z,5.95
2023-07-02T09:27:40.861Z,5.78
2023-07-02T09:30:09.457Z,5.35
2023-07-02T09:32:37.030Z,5.43
2023-07-02T09:35:05.904Z,5.10
2023-07-02T09:37:33.818Z,5.40
2023-07-02T09:40:02.772Z,5.60
2023-07-02T09:42:30.810Z,5.13
2023-07-02T09:45:00.119Z,5.03
2023-07-02T09:47:28.551Z,5.43
2023-07-02T09:50:00.894Z,6.30
2023-07-02T09:52:31.340Z,5.40
2023-07-02T09:54:58.558Z,5.30
2023-07-02T09:57:26.030Z,5.20
2023-07-02T09:59:53.334Z,4.90
2023-07-02T10:02:20.841Z,5.13
2023-07-02T10:04:49.467Z,5.00
2023-07-02T10:07:28.603Z,4.68
2023-07-02T10:09:55.961Z,4.80
2023-07-02T10:12:24.861Z,4.32
2023-07-02T10:14:54.870Z,4.20
2023-07-02T10:17:30.315Z,4.03
2023-07-02T10:20:00.576Z,3.67
2023-07-02T10:22:28.471Z,4.03
2023-07-02T10:25:03.297Z,4.00
2023-07-02T10:27:38.808Z,3.83
2023-07-02T10:30:07.991Z,4.15
2023-07-02T10:32:36.798Z,4.70
2023-07-02T10:35:17.811Z,4.47
2023-07-02T10:37:45.589Z,4.75
2023-07-02T10:40:13.667Z,3.75
2023-07-02T10:42:51.958Z,3.65
2023-07-02T10:45:20.655Z,4.22
2023-07-02T10:47:48.244Z,4.53
2023-07-02T10:50:22.797Z,3.50
2023-07-02T10:52:51.999Z,3.30
2023-07-02T10:55:23.989Z,3.63
2023-07-02T10:58:03.122Z,3.25
2023-07-02T11:00:31.289Z,3.05
2023-07-02T11:02:58.936Z,3.03
2023-07-02T11:05:29.587Z,3.17
2023-07-02T11:08:10.066Z,3.20
2023-07-02T11:10:37.332Z,3.45
2023-07-02T11:13:21.714Z,3.08
2023-07-02T11:15:49.653Z,3.08
2023-07-02T11:18:19.205Z,3.13
2023-07-02T11:20:48.347Z,3.03
2023-07-02T11:23:19.629Z,2.70
2023-07-02T11:26:00.323Z,2.65
2023-07-02T11:28:29.091Z,3.13
2023-07-02T11:30:57.175Z,2.72
2023-07-02T11:33:37.675Z,2.85
2023-07-02T11:36:09.303Z,2.75
2023-07-02T11:38:38.259Z,3.35
2023-07-02T11:41:05.764Z,3.28
2023-07-02T11:43:33.746Z,2.50
2023-07-02T11:46:00.948Z,3.22
2023-07-02T11:48:28.885Z,3.35
2023-07-02T11:50:56.099Z,2.78
2023-07-02T11:53:23.262Z,2.70
2023-07-02T11:55:50.818Z,2.90
2023-07-02T11:58:18.241Z,2.53
2023-07-02T12:00:45.432Z,2.97
2023-07-02T12:03:13.303Z,2.30
2023-07-02T12:05:40.541Z,2.50
2023-07-02T12:08:08.555Z,2.92
2023-07-02T12:10:37.805Z,2.75
2023-07-02T12:13:05.942Z,3.03
2023-07-02T12:15:33.172Z,3.63
2023-07-02T12:18:00.467Z,3.05
2023-07-02T12:20:27.726Z,3.22
2023-07-02T12:22:54.896Z,3.22
2023-07-02T12:25:22.264Z,3.10
2023-07-02T12:27:49.518Z,3.33
2023-07-02T12:30:18.524Z,3.38
2023-07-02T12:32:46.118Z,3.10
2023-07-02T12:35:13.553Z,3.00
2023-07-02T12:37:48.458Z,3.28
2023-07-02T12:40:16.013Z,3.55
2023-07-02T12:42:44.479Z,3.55
2023-07-02T12:45:13.231Z,3.78
2023-07-02T12:47:42.178Z,3.42
2023-07-02T12:50:11.043Z,3.40
2023-07-02T12:52:38.772Z,3.38
2023-07-02T12:55:06.556Z,3.55
2023-07-02T12:57:33.756Z,3.30
2023-07-02T13:00:01.039Z,3.40
2023-07-02T13:02:29.294Z,3.22
2023-07-02T13:04:56.608Z,3.08
2023-07-02T13:07:25.196Z,3.00
2023-07-02T13:09:52.574Z,3.45
2023-07-02T13:12:19.773Z,4.03
2023-07-02T13:14:47.266Z,3.55
2023-07-02T13:17:14.480Z,3.50
2023-07-02T13:19:41.645Z,3.50
2023-07-02T13:22:08.949Z,3.35
2023-07-02T13:24:39.020Z,3.20
2023-07-02T13:27:10.289Z,3.10
2023-07-02T13:29:37.616Z,3.25
2023-07-02T13:32:05.219Z,3.30
2023-07-02T13:34:32.470Z,3.10
2023-07-02T13:36:59.676Z,3.00
2023-07-02T13:39:26.862Z,3.00
2023-07-02T13:41:54.048Z,3.58
2023-07-02T13:44:21.152Z,4.07
2023-07-02T13:46:48.514Z,4.07
2023-07-02T13:49:15.681Z,3.65
2023-07-02T13:51:42.884Z,3.83
2023-07-02T13:54:13.688Z,3.10
2023-07-02T13:56:40.897Z,3.40
2023-07-02T13:59:08.539Z,3.10
2023-07-02T14:01:35.831Z,3.00
2023-07-02T14:04:04.748Z,3.00
2023-07-02T14:06:32.548Z,3.00
2023-07-02T14:08:59.794Z,3.33
2023-07-02T14:11:29.038Z,3.20
2023-07-02T14:13:56.838Z,3.33
2023-07-02T14:16:25.314Z,3.13
2023-07-02T14:18:53.242Z,3.67
2023-07-02T14:21:21.037Z,3.00
2023-07-02T14:23:48.227Z,3.28
2023-07-02T14:26:15.412Z,3.47
2023-07-02T14:28:42.676Z,3.38
2023-07-02T14:31:10.521Z,3.13
2023-07-02T14:33:38.993Z,3.50
2023-07-02T14:36:07.328Z,3.60
2023-07-02T14:38:35.628Z,3.20
2023-07-02T14:41:03.392Z,3.50
2023-07-02T14:43:32.146Z,2.90
2023-07-02T14:46:02.160Z,2.72
2023-07-02T14:48:29.764Z,3.58
2023-07-02T14:50:59.749Z,3.92
2023-07-02T14:53:28.458Z,3.22
2023-07-02T14:55:57.287Z,3.20
2023-07-02T14:58:26.663Z,2.95
2023-07-02T15:00:56.203Z,3.30
2023-07-02T15:03:25.975Z,2.88
2023-07-02T15:05:54.449Z,3.08
2023-07-02T15:08:22.751Z,3.10
2023-07-02T15:10:52.553Z,3.00
2023-07-02T15:13:22.947Z,3.33
2023-07-02T15:15:52.155Z,3.22
2023-07-02T15:18:21.474Z,2.80
2023-07-02T15:20:52.743Z,3.15
2023-07-02T15:23:21.625Z,2.92
2023-07-02T15:25:56.748Z,3.00
2023-07-02T15:28:25.102Z,2.72
2023-07-02T15:30:57.470Z,2.97
2023-07-02T15:33:25.517Z,2.47
2023-07-02T15:35:53.435Z,2.90
2023-07-02T15:38:21.588Z,3.10
2023-07-02T15:40:50.492Z,2.80
2023-07-02T15:43:17.744Z,2.80
2023-07-02T15:45:44.917Z,2.97
2023-07-02T15:48:14.874Z,3.10
2023-07-02T15:50:42.036Z,2.60
2023-07-02T15:53:09.245Z,2.75
2023-07-02T15:55:36.865Z,2.78
2023-07-02T15:58:04.089Z,3.22
2023-07-02T16:00:31.589Z,3.10
2023-07-02T16:02:58.943Z,3.25
2023-07-02T16:05:26.675Z,2.83
2023-07-02T16:07:54.076Z,3.00
2023-07-02T16:10:21.438Z,3.50
2023-07-02T16:12:49.791Z,3.30
2023-07-02T16:15:17.296Z,3.65
2023-07-02T16:17:44.560Z,3.10
2023-07-02T16:20:12.536Z,3.53
2023-07-02T16:22:39.845Z,3.50
2023-07-02T16:25:07.553Z,3.70
2023-07-02T16:27:35.919Z,3.53
2023-07-02T16:30:04.534Z,3.47
2023-07-02T16:32:32.990Z,3.55
2023-07-02T16:35:00.244Z,3.55
2023-07-02T16:37:27.736Z,3.70
2023-07-02T16:39:55.303Z,3.88
2023-07-02T16:42:22.571Z,3.67
2023-07-02T16:44:49.906Z,4.28
2023-07-02T16:47:17.147Z,4.00
2023-07-02T16:49:47.677Z,4.18
2023-07-02T16:52:15.969Z,4.85
2023-07-02T16:54:43.462Z,4.78
2023-07-02T16:57:10.687Z,4.15
2023-07-02T16:59:40.761Z,4.30
2023-07-02T17:02:10.207Z,4.18
2023-07-02T17:04:37.546Z,4.53
2023-07-02T17:07:05.024Z,4.22
2023-07-02T17:09:40.675Z,4.15
2023-07-02T17:12:12.823Z,4.10
2023-07-02T17:14:41.064Z,4.45
2023-07-02T17:17:11.669Z,4.20
2023-07-02T17:19:41.942Z,3.75
2023-07-02T17:22:12.292Z,3.80
2023-07-02T17:24:42.519Z,4.50
2023-07-02T17:27:11.928Z,4.40
2023-07-02T17:29:39.694Z,4.97
2023-07-02T17:32:09.507Z,4.80
2023-07-02T17:34:38.525Z,4.70
2023-07-02T17:37:07.777Z,4.22
2023-07-02T17:39:36.777Z,4.32
2023-07-02T17:42:05.221Z,4.25
2023-07-02T17:44:35.837Z,4.38
2023-07-02T17:47:06.878Z,4.57
2023-07-02T17:49:37.979Z,3.85
2023-07-02T17:52:06.587Z,4.60
2023-07-02T17:54:59.584Z,3.83
2023-07-02T17:57:26.837Z,4.03
2023-07-02T17:59:56.981Z,3.85
2023-07-02T18:02:24.482Z,3.97
2023-07-02T18:04:51.902Z,3.97
2023-07-02T18:07:21.307Z,4.03
2023-07-02T18:09:51.017Z,4.05
2023-07-02T18:12:26.467Z,3.80
2023-07-02T18:14:57.394Z,3.78
2023-07-02T18:17:24.860Z,3.78
2023-07-02T18:19:54.284Z,4.13
2023-07-02T18:22:22.208Z,3.85
2023-07-02T18:24:49.480Z,3.72
2023-07-02T18:27:17.416Z,3.40
2023-07-02T18:29:44.823Z,3.85
2023-07-02T18:32:12.022Z,4.25
2023-07-02T18:34:41.019Z,3.85
2023-07-02T18:37:11.027Z,3.92
2023-07-02T18:39:38.877Z,3.60
2023-07-02T18:42:09.270Z,3.63
2023-07-02T18:44:37.187Z,3.70
2023-07-02T18:47:07.740Z,4.32
2023-07-02T18:49:36.412Z,3.92
2023-07-02T18:52:15.132Z,3.90
2023-07-02T18:54:42.836Z,3.85
2023-07-02T18:57:12.091Z,3.90
2023-07-02T18:59:41.505Z,3.92
2023-07-02T19:02:08.847Z,3.95
2023-07-02T19:04:36.173Z,4.00
2023-07-02T19:07:06.174Z,3.70
2023-07-02T19:09:37.645Z,3.70
2023-07-02T19:12:08.485Z,3.97
2023-07-02T19:14:39.766Z,4.03
2023-07-02T19:17:10.222Z,3.53
2023-07-02T19:19:41.266Z,3.85
2023-07-02T19:22:12.972Z,3.40
2023-07-02T19:24:40.779Z,4.32
2023-07-02T19:27:10.758Z,4.72
2023-07-02T19:29:38.694Z,3.35
2023-07-02T19:32:06.485Z,3.75
2023-07-02T19:34:34.096Z,3.70
2023-07-02T19:37:01.683Z,3.50
2023-07-02T19:39:31.738Z,4.35
2023-07-02T19:41:59.181Z,3.90
2023-07-02T19:44:26.556Z,4.18
2023-07-02T19:46:53.781Z,3.70
2023-07-02T19:49:21.484Z,3.35
2023-07-02T19:51:51.503Z,3.60
2023-07-02T19:54:20.374Z,3.13
2023-07-02T19:56:49.972Z,3.70
2023-07-02T19:59:17.924Z,3.80
2023-07-02T20:01:45.419Z,3.45
2023-07-02T20:04:23.128Z,3.67
2023-07-02T20:06:50.909Z,3.80
2023-07-02T20:09:18.598Z,3.38
2023-07-02T20:11:45.898Z,3.70
2023-07-02T20:14:13.137Z,3.70
2023-07-02T20:16:40.800Z,3.28
2023-07-02T20:19:08.103Z,4.05
2023-07-02T20:21:35.332Z,3.67
2023-07-02T20:24:05.898Z,3.55
2023-07-02T20:26:35.520Z,3.45
2023-07-02T20:29:03.228Z,3.30
2023-07-02T20:31:31.595Z,3.85
2023-07-02T20:34:03.221Z,3.53
2023-07-02T20:39:00.628Z,3.95
2023-07-02T20:41:29.235Z,4.20
2023-07-02T20:44:04.984Z,3.90
2023-07-02T20:46:32.805Z,3.47
2023-07-02T20:49:00.338Z,3.88
2023-07-02T20:51:28.074Z,3.72
2023-07-02T20:53:55.421Z,3.53
2023-07-02T20:56:22.759Z,3.78
2023-07-02T20:58:51.443Z,3.60
2023-07-02T21:01:18.745Z,3.65
2023-07-02T21:03:46.146Z,4.00
2023-07-02T21:06:13.642Z,5.20
2023-07-02T21:08:40.915Z,4.07
2023-07-02T21:11:20.326Z,3.78
2023-07-02T21:13:56.344Z,3.92
2023-07-02T21:16:24.155Z,4.18
2023-07-02T21:18:51.770Z,4.10
2023-07-02T21:21:19.119Z,4.57
2023-07-02T21:23:46.409Z,4.45
2023-07-02T21:26:13.658Z,4.60
2023-07-02T21:28:40.913Z,4.03
2023-07-02T21:31:08.317Z,4.05
2023-07-02T21:33:35.541Z,4.80
2023-07-02T21:36:08.700Z,3.78
2023-07-02T21:38:38.579Z,4.28
2023-07-02T21:41:07.289Z,3.60
2023-07-02T21:43:35.193Z,3.95
2023-07-02T21:46:04.752Z,3.58
2023-07-02T21:48:32.131Z,4.32
2023-07-02T21:50:59.378Z,4.10
2023-07-02T21:53:26.683Z,3.70
2023-07-02T21:55:54.081Z,4.05
2023-07-02T21:58:21.714Z,3.80
2023-07-02T22:00:49.173Z,3.88
2023-07-02T22:03:16.924Z,3.80
2023-07-02T22:05:44.201Z,4.20
2023-07-02T22:08:11.431Z,4.10
2023-07-02T22:10:38.636Z,3.72
2023-07-02T22:13:06.930Z,3.80
2023-07-02T22:15:34.201Z,4.00
2023-07-02T22:18:04.138Z,3.90
2023-07-02T22:20:33.636Z,3.67
2023-07-02T22:23:01.844Z,3.50
2023-07-02T22:25:29.626Z,3.90
2023-07-02T22:27:57.383Z,4.18
2023-07-02T22:30:24.860Z,3.58
2023-07-02T22:32:52.192Z,4.05
2023-07-02T22:35:20.008Z,3.85
2023-07-02T22:37:47.842Z,3.78
2023-07-02T22:40:17.815Z,3.60
2023-07-02T22:42:45.883Z,4.13
2023-07-02T22:45:15.181Z,4.07
2023-07-02T22:47:43.791Z,3.70
2023-07-02T22:50:13.670Z,4.20
2023-07-02T22:52:40.894Z,3.70
2023-07-02T22:55:08.662Z,3.53
2023-07-02T22:57:36.455Z,3.67
2023-07-02T23:00:13.430Z,4.22
2023-07-02T23:02:46.450Z,3.72
2023-07-02T23:05:18.350Z,4.35
2023-07-02T23:07:47.512Z,3.78
2023-07-02T23:10:17.403Z,3.60
2023-07-02T23:12:49.750Z,3.60
2023-07-02T23:15:19.761Z,3.72
2023-07-02T23:17:52.272Z,3.70
2023-07-02T23:20:20.305Z,4.20
2023-07-02T23:22:49.625Z,3.72
2023-07-02T23:25:21.718Z,3.85
2023-07-02T23:27:50.346Z,3.90
2023-07-02T23:30:20.976Z,3.80
2023-07-02T23:32:50.036Z,3.80
2023-07-02T23:35:17.457Z,4.25
2023-07-02T23:37:46.816Z,3.78
2023-07-02T23:40:17.596Z,3.90
2023-07-02T23:42:45.517Z,3.78
2023-07-02T23:45:14.471Z,3.58
2023-07-02T23:47:44.023Z,4.03
2023-07-02T23:50:13.214Z,3.75
2023-07-02T23:52:40.741Z,4.57
2023-07-02T23:55:11.515Z,4.22
2023-07-02T23:57:39.251Z,4.03
